createdAt,value
2022-12-13T00:00:27.247Z,86
2022-12-13T00:01:42.016Z,86
2022-12-13T00:02:45.467Z,86
2022-12-13T00:03:33.611Z,86
2022-12-13T00:04:46.846Z,86
2022-12-13T00:05:37.304Z,86
2022-12-13T00:06:31.837Z,86
2022-12-13T00:07:32.751Z,86
2022-12-13T00:09:04.634Z,86
2022-12-13T00:09:43.342Z,86
2022-12-13T00:10:36.259Z,87
2022-12-13T00:11:25.503Z,86
2022-12-13T00:12:40.229Z,86
2022-12-13T00:13:35.293Z,86
2022-12-13T00:14:27.270Z,86
2022-12-13T00:15:24.881Z,86
2022-12-13T00:16:52.619Z,86
2022-12-13T00:17:31.030Z,86
2022-12-13T00:18:24.606Z,87
2022-12-13T00:19:48.356Z,86
2022-12-13T00:20:41.161Z,86
2022-12-13T00:21:35.486Z,87
2022-12-13T00:22:26.923Z,86
2022-12-13T00:23:35.906Z,87
2022-12-13T00:24:46.031Z,87
2022-12-13T00:25:28.533Z,86
2022-12-13T00:26:51.530Z,86
2022-12-13T00:27:45.347Z,86
2022-12-13T00:28:28.335Z,86
2022-12-13T00:29:31.228Z,86
2022-12-13T00:30:23.806Z,87
2022-12-13T00:31:59.378Z,86
2022-12-13T00:32:32.344Z,87
2022-12-13T00:33:55.604Z,87
2022-12-13T00:34:32.562Z,87
2022-12-13T00:35:42.663Z,86
2022-12-13T00:36:26.344Z,86
2022-12-13T00:37:26.833Z,86
2022-12-13T00:38:47.262Z,86
2022-12-13T00:39:25.681Z,86
2022-12-13T00:40:19.864Z,86
2022-12-13T00:41:53.006Z,85
2022-12-13T00:42:33.575Z,86
2022-12-13T00:43:31.591Z,86
2022-12-13T00:44:31.437Z,86
2022-12-13T00:45:23.473Z,86
2022-12-13T00:46:38.208Z,86
2022-12-13T00:47:23.550Z,86
2022-12-13T00:48:58.922Z,86
2022-12-13T00:49:49.872Z,86
2022-12-13T00:50:21.846Z,86
2022-12-13T00:51:34.201Z,86
2022-12-13T00:52:27.178Z,86
2022-12-13T00:53:22.061Z,86
2022-12-13T00:54:26.156Z,86
2022-12-13T00:56:01.227Z,86
2022-12-13T00:56:49.039Z,86
2022-12-13T00:57:35.954Z,86
2022-12-13T00:58:23.157Z,86
2022-12-13T00:59:31.243Z,87
2022-12-13T01:00:25.371Z,87
2022-12-13T01:01:30.451Z,86
2022-12-13T01:02:29.984Z,86
2022-12-13T01:03:44.313Z,86
2022-12-13T01:04:37.365Z,87
2022-12-13T01:05:47.537Z,87
2022-12-13T01:06:22.462Z,86
2022-12-13T01:07:21.968Z,87
2022-12-13T01:08:21.542Z,87
2022-12-13T01:09:25.219Z,86
2022-12-13T01:10:54.585Z,87
2022-12-13T01:11:41.343Z,87
2022-12-13T01:12:27.402Z,87
2022-12-13T01:13:28.159Z,87
2022-12-13T01:14:32.947Z,87
2022-12-13T01:15:24.906Z,87
2022-12-13T01:16:25.244Z,87
2022-12-13T01:17:57.645Z,87
2022-12-13T01:18:44.539Z,87
2022-12-13T01:19:33.599Z,87
2022-12-13T01:20:45.273Z,87
2022-12-13T01:21:37.250Z,87
2022-12-13T01:22:30.093Z,87
2022-12-13T01:23:21.983Z,87
2022-12-13T01:24:26.085Z,87
2022-12-13T01:25:38.908Z,87
2022-12-13T01:26:34.733Z,87
2022-12-13T01:27:23.565Z,86
2022-12-13T01:28:41.478Z,86
2022-12-13T01:29:27.840Z,86
2022-12-13T01:30:31.197Z,86
2022-12-13T01:31:42.241Z,87
2022-12-13T01:32:30.058Z,86
2022-12-13T01:33:37.995Z,86
2022-12-13T01:34:26.599Z,86
2022-12-13T01:35:22.711Z,86
2022-12-13T01:36:38.534Z,86
2022-12-13T01:37:26.210Z,86
2022-12-13T01:38:26.435Z,86
2022-12-13T01:39:54.197Z,86
2022-12-13T01:40:40.115Z,86
2022-12-13T01:41:28.001Z,86
2022-12-13T01:42:39.050Z,86
2022-12-13T01:43:40.900Z,86
2022-12-13T01:44:26.718Z,86
2022-12-13T01:45:20.998Z,86
2022-12-13T01:46:21.769Z,87
2022-12-13T01:47:32.271Z,87
2022-12-13T01:48:22.787Z,87
2022-12-13T01:49:54.134Z,87
2022-12-13T01:50:46.932Z,86
2022-12-13T01:51:26.847Z,86
2022-12-13T01:52:19.938Z,86
2022-12-13T01:53:30.251Z,87
2022-12-13T01:54:47.012Z,87
2022-12-13T01:55:32.356Z,86
2022-12-13T01:57:00.834Z,86
2022-12-13T01:57:50.945Z,86
2022-12-13T01:58:30.383Z,86
2022-12-13T01:59:28.965Z,86
2022-12-13T02:00:28.240Z,85
2022-12-13T02:19:04.123Z,87
2022-12-13T02:19:50.846Z,87
2022-12-13T02:20:25.558Z,86
2022-12-13T02:21:26.233Z,86
2022-12-13T02:22:33.844Z,86
2022-12-13T02:23:28.483Z,86
2022-12-13T02:24:20.066Z,87
2022-12-13T02:25:57.130Z,87
2022-12-13T02:26:28.115Z,87
2022-12-13T02:27:43.039Z,87
2022-12-13T02:28:31.205Z,86
2022-12-13T02:29:38.507Z,86
2022-12-13T02:30:32.495Z,87
2022-12-13T02:31:24.056Z,86
2022-12-13T02:32:24.543Z,86
2022-12-13T02:33:47.238Z,86
2022-12-13T02:34:21.701Z,86
2022-12-13T02:35:29.065Z,86
2022-12-13T02:36:43.987Z,87
2022-12-13T02:37:36.838Z,87
2022-12-13T02:38:29.631Z,87
2022-12-13T02:39:30.389Z,87
2022-12-13T02:41:01.014Z,86
2022-12-13T02:41:47.464Z,86
2022-12-13T02:42:32.133Z,86
2022-12-13T02:43:33.585Z,86
2022-12-13T02:44:43.957Z,87
2022-12-13T02:45:33.844Z,87
2022-12-13T02:46:29.560Z,88
2022-12-13T02:48:02.594Z,87
2022-12-13T02:48:23.420Z,87
2022-12-13T02:49:36.599Z,86
2022-12-13T02:50:25.369Z,86
2022-12-13T02:51:45.189Z,86
2022-12-13T02:52:38.813Z,86
2022-12-13T02:53:30.347Z,86
2022-12-13T02:54:26.968Z,86
2022-12-13T02:55:40.889Z,86
2022-12-13T02:56:38.428Z,86
2022-12-13T02:57:26.657Z,86
2022-12-13T02:58:49.396Z,86
2022-12-13T02:59:41.365Z,86
2022-12-13T03:00:36.631Z,86
2022-12-13T03:01:28.152Z,86
2022-12-13T03:02:30.744Z,86
2022-12-13T03:03:43.073Z,86
2022-12-13T03:04:29.850Z,86
2022-12-13T03:05:24.340Z,86
2022-12-13T03:06:37.755Z,86
2022-12-13T03:07:39.556Z,87
2022-12-13T03:08:32.615Z,87
2022-12-13T03:09:24.647Z,87
2022-12-13T03:10:46.329Z,86
2022-12-13T03:11:30.004Z,86
2022-12-13T03:12:42.052Z,86
2022-12-13T03:13:56.097Z,86
2022-12-13T03:14:43.825Z,86
2022-12-13T03:15:27.741Z,86
2022-12-13T03:16:22.999Z,86
2022-12-13T03:17:21.400Z,86
2022-12-13T03:18:34.496Z,86
2022-12-13T03:19:25.416Z,86
2022-12-13T03:20:57.145Z,86
2022-12-13T03:21:48.634Z,86
2022-12-13T03:22:27.027Z,86
2022-12-13T03:23:32.616Z,86
2022-12-13T03:24:26.002Z,87
2022-12-13T03:25:38.593Z,87
2022-12-13T03:26:36.042Z,87
2022-12-13T03:28:01.920Z,87
2022-12-13T03:28:29.825Z,88
2022-12-13T03:29:34.153Z,87
2022-12-13T03:30:34.274Z,87
2022-12-13T03:31:29.684Z,87
2022-12-13T03:32:22.045Z,86
2022-12-13T03:33:21.787Z,87
2022-12-13T03:34:44.030Z,87
2022-12-13T03:35:49.531Z,87
2022-12-13T03:36:36.551Z,87
2022-12-13T03:37:26.351Z,87
2022-12-13T03:38:31.183Z,87
2022-12-13T03:39:29.171Z,87
2022-12-13T03:40:20.693Z,87
2022-12-13T03:41:55.605Z,87
2022-12-13T03:42:52.772Z,87
2022-12-13T03:43:39.626Z,87
2022-12-13T03:44:41.929Z,86
2022-12-13T03:45:35.561Z,86
2022-12-13T03:46:28.428Z,87
2022-12-13T03:47:22.429Z,87
2022-12-13T03:48:22.213Z,87
2022-12-13T03:49:56.059Z,87
2022-12-13T03:50:27.745Z,86
2022-12-13T03:51:29.852Z,87
2022-12-13T03:52:38.974Z,87
2022-12-13T03:53:34.586Z,87
2022-12-13T03:54:24.865Z,87
2022-12-13T03:55:25.237Z,87
2022-12-13T03:56:29.060Z,87
2022-12-13T03:57:46.223Z,87
2022-12-13T03:58:36.543Z,87
2022-12-13T03:59:43.069Z,87
2022-12-13T04:00:37.887Z,88
2022-12-13T04:01:25.804Z,88
2022-12-13T04:02:30.785Z,88
2022-12-13T04:03:48.553Z,88
2022-12-13T04:04:49.002Z,87
2022-12-13T04:05:36.298Z,87
2022-12-13T04:06:23.463Z,88
2022-12-13T04:07:27.095Z,88
2022-12-13T04:08:33.295Z,88
2022-12-13T04:09:26.135Z,88
2022-12-13T04:11:06.964Z,88
2022-12-13T04:11:51.718Z,88
2022-12-13T04:12:39.300Z,88
2022-12-13T04:13:26.525Z,88
2022-12-13T04:14:45.326Z,88
2022-12-13T04:15:39.288Z,88
2022-12-13T04:16:36.242Z,88
2022-12-13T04:17:23.741Z,88
2022-12-13T04:18:24.046Z,88
2022-12-13T04:19:39.698Z,88
2022-12-13T04:20:27.173Z,88
2022-12-13T04:21:49.565Z,88
2022-12-13T04:22:42.525Z,88
2022-12-13T04:23:35.664Z,89
2022-12-13T04:24:31.319Z,88
2022-12-13T04:25:20.248Z,88
2022-12-13T04:26:44.954Z,88
2022-12-13T04:28:00.900Z,87
2022-12-13T04:28:54.770Z,87
2022-12-13T04:29:19.867Z,87
2022-12-13T04:30:34.580Z,87
2022-12-13T04:31:26.762Z,87
2022-12-13T04:32:29.246Z,87
2022-12-13T04:33:23.644Z,87
2022-12-13T04:34:37.424Z,87
2022-12-13T04:35:20.647Z,87
2022-12-13T04:36:39.897Z,87
2022-12-13T04:37:43.814Z,87
2022-12-13T04:38:29.927Z,86
2022-12-13T04:39:28.048Z,86
2022-12-13T04:40:26.215Z,87
2022-12-13T04:41:34.150Z,87
2022-12-13T04:42:44.257Z,87
2022-12-13T04:43:54.253Z,87
2022-12-13T04:44:48.133Z,87
2022-12-13T04:45:33.106Z,86
2022-12-13T04:46:24.221Z,86
2022-12-13T04:47:25.616Z,86
2022-12-13T04:48:31.101Z,87
2022-12-13T04:49:26.308Z,87
2022-12-13T04:50:58.450Z,87
2022-12-13T04:51:54.690Z,87
2022-12-13T04:52:28.256Z,87
2022-12-13T04:53:25.178Z,87
2022-12-13T04:54:36.663Z,86
2022-12-13T04:55:23.252Z,86
2022-12-13T04:56:23.589Z,86
2022-12-13T04:58:05.863Z,86
2022-12-13T04:58:32.279Z,86
2022-12-13T04:59:39.470Z,86
2022-12-13T05:00:25.327Z,86
2022-12-13T05:01:34.299Z,85
2022-12-13T05:02:25.918Z,85
2022-12-13T05:03:25.121Z,86
2022-12-13T05:04:19.580Z,86
2022-12-13T05:05:50.778Z,86
2022-12-13T05:06:41.800Z,86
2022-12-13T05:07:28.729Z,86
2022-12-13T05:08:37.132Z,86
2022-12-13T05:09:29.993Z,86
2022-12-13T05:10:33.972Z,87
2022-12-13T05:11:24.847Z,87
2022-12-13T05:12:58.049Z,88
2022-12-13T05:13:45.035Z,87
2022-12-13T05:14:23.281Z,87
2022-12-13T05:15:35.841Z,87
2022-12-13T05:16:34.755Z,87
2022-12-13T05:17:29.114Z,87
2022-12-13T05:18:20.015Z,86
2022-12-13T05:19:19.879Z,86
2022-12-13T05:20:25.929Z,86
2022-12-13T05:21:35.948Z,86
2022-12-13T05:22:22.184Z,86
2022-12-13T05:23:40.098Z,86
2022-12-13T05:24:32.844Z,86
2022-12-13T05:25:25.278Z,86
2022-12-13T05:26:25.032Z,86
2022-12-13T05:27:45.477Z,87
2022-12-13T05:28:37.165Z,87
2022-12-13T05:29:26.859Z,87
2022-12-13T05:30:43.111Z,86
2022-12-13T05:31:26.172Z,87
2022-12-13T05:32:29.065Z,86
2022-12-13T05:33:22.946Z,86
2022-12-13T05:34:20.980Z,86
2022-12-13T05:35:41.624Z,86
2022-12-13T05:36:26.326Z,86
2022-12-13T05:37:29.525Z,86
2022-12-13T05:38:42.318Z,86
2022-12-13T05:39:36.272Z,86
2022-12-13T05:40:23.502Z,86
2022-12-13T05:41:25.573Z,86
2022-12-13T05:42:20.180Z,86
2022-12-13T05:43:42.160Z,86
2022-12-13T05:44:47.669Z,87
2022-12-13T05:45:44.642Z,86
2022-12-13T05:46:41.567Z,86
2022-12-13T05:47:24.280Z,86
2022-12-13T05:48:24.851Z,85
2022-12-13T05:49:22.252Z,86
2022-12-13T05:50:32.633Z,86
2022-12-13T05:51:19.717Z,86
2022-12-13T05:52:48.923Z,85
2022-12-13T05:53:41.842Z,85
2022-12-13T05:54:34.706Z,86
2022-12-13T05:55:26.105Z,85
2022-12-13T05:56:27.010Z,86
2022-12-13T05:57:21.395Z,86
2022-12-13T05:58:23.305Z,86
2022-12-13T05:59:22.083Z,86
2022-12-13T06:00:36.135Z,86
2022-12-13T06:01:32.183Z,85
2022-12-13T06:02:30.923Z,85
2022-12-13T06:03:27.084Z,85
2022-12-13T06:04:25.554Z,85
2022-12-13T06:05:26.963Z,85
2022-12-13T06:06:42.304Z,85
2022-12-13T06:07:53.647Z,85
2022-12-13T06:08:33.725Z,85
2022-12-13T06:09:22.227Z,85
2022-12-13T06:10:35.147Z,85
2022-12-13T06:11:30.986Z,85
2022-12-13T06:12:31.920Z,85
2022-12-13T06:14:01.654Z,85
2022-12-13T06:14:54.643Z,86
2022-12-13T06:15:44.606Z,86
2022-12-13T06:16:29.644Z,86
2022-12-13T06:17:31.000Z,86
2022-12-13T06:18:25.519Z,87
2022-12-13T06:19:31.646Z,87
2022-12-13T06:21:07.445Z,86
2022-12-13T06:21:54.566Z,86
2022-12-13T06:22:28.785Z,86
2022-12-13T06:23:42.774Z,86
2022-12-13T06:24:35.249Z,85
2022-12-13T06:25:31.277Z,86
2022-12-13T06:26:21.019Z,85
2022-12-13T06:27:25.623Z,85
2022-12-13T06:28:34.364Z,86
2022-12-13T06:29:44.072Z,86
2022-12-13T06:30:31.479Z,86
2022-12-13T06:31:39.974Z,86
2022-12-13T06:32:32.242Z,87
2022-12-13T06:33:27.743Z,87
2022-12-13T06:34:27.114Z,87
2022-12-13T06:35:27.909Z,86
2022-12-13T06:36:48.025Z,86
2022-12-13T06:37:51.334Z,86
2022-12-13T06:38:31.712Z,86
2022-12-13T06:39:33.783Z,86
2022-12-13T06:40:30.015Z,87
2022-12-13T06:41:26.434Z,87
2022-12-13T06:42:24.351Z,87
2022-12-13T06:43:50.525Z,87
2022-12-13T06:44:27.295Z,86
2022-12-13T06:45:25.216Z,86
2022-12-13T06:46:41.430Z,86
2022-12-13T06:47:34.276Z,86
2022-12-13T06:48:27.167Z,86
2022-12-13T06:49:32.424Z,86
2022-12-13T06:50:21.763Z,86
2022-12-13T06:51:43.877Z,86
2022-12-13T06:52:26.921Z,86
2022-12-13T06:53:45.376Z,86
2022-12-13T06:54:38.737Z,86
2022-12-13T06:55:23.878Z,86
2022-12-13T06:56:25.028Z,86
2022-12-13T06:57:25.908Z,86
2022-12-13T06:58:41.385Z,86
2022-12-13T06:59:28.568Z,86
2022-12-13T07:00:49.593Z,86
2022-12-13T07:01:42.939Z,86
2022-12-13T07:02:39.832Z,86
2022-12-13T07:03:29.329Z,87
2022-12-13T07:04:29.900Z,87
2022-12-13T07:05:25.187Z,87
2022-12-13T07:06:31.633Z,87
2022-12-13T07:07:31.459Z,87
2022-12-13T07:08:46.083Z,87
2022-12-13T07:09:41.553Z,87
2022-12-13T07:10:27.944Z,87
2022-12-13T07:11:25.193Z,87
2022-12-13T07:12:22.019Z,87
2022-12-13T07:13:21.803Z,87
2022-12-13T07:14:21.750Z,87
2022-12-13T07:15:50.358Z,87
2022-12-13T07:16:44.211Z,87
2022-12-13T07:17:33.228Z,87
2022-12-13T07:18:27.982Z,86
2022-12-13T07:19:24.165Z,87
2022-12-13T07:20:25.197Z,87
2022-12-13T07:21:26.860Z,86
2022-12-13T07:22:58.319Z,86
2022-12-13T07:23:47.674Z,86
2022-12-13T07:24:34.728Z,86
2022-12-13T07:25:27.843Z,86
2022-12-13T07:26:24.935Z,86
2022-12-13T07:27:30.385Z,87
2022-12-13T07:28:22.777Z,87
2022-12-13T07:29:25.323Z,87
2022-12-13T07:30:41.148Z,87
2022-12-13T07:31:36.653Z,88
2022-12-13T07:32:27.360Z,88
2022-12-13T07:33:29.034Z,88
2022-12-13T07:34:22.027Z,87
2022-12-13T07:35:27.047Z,87
2022-12-13T07:36:43.133Z,87
2022-12-13T07:37:56.107Z,87
2022-12-13T07:38:40.081Z,87
2022-12-13T07:39:26.917Z,87
2022-12-13T07:40:21.084Z,87
2022-12-13T07:41:28.382Z,87
2022-12-13T07:42:30.335Z,87
2022-12-13T07:43:25.487Z,87
2022-12-13T07:44:57.936Z,87
2022-12-13T07:45:43.253Z,87
2022-12-13T07:46:32.323Z,88
2022-12-13T07:47:38.937Z,87
2022-12-13T07:48:30.961Z,87
2022-12-13T07:49:27.137Z,87
2022-12-13T07:50:24.787Z,87
2022-12-13T07:51:20.670Z,87
2022-12-13T07:52:24.162Z,87
2022-12-13T07:53:33.500Z,87
2022-12-13T07:54:40.872Z,87
2022-12-13T07:55:35.863Z,87
2022-12-13T07:56:26.858Z,87
2022-12-13T07:57:19.760Z,87
2022-12-13T07:58:24.841Z,87
2022-12-13T07:59:28.687Z,87
2022-12-13T08:00:36.820Z,87
2022-12-13T08:01:25.734Z,87
2022-12-13T08:02:40.585Z,88
2022-12-13T08:03:32.684Z,88
2022-12-13T08:04:24.062Z,87
2022-12-13T08:05:38.473Z,87
2022-12-13T08:06:24.021Z,87
2022-12-13T08:07:34.013Z,87
2022-12-13T08:08:19.985Z,87
2022-12-13T08:09:33.918Z,86
2022-12-13T08:10:37.402Z,87
2022-12-13T08:11:28.833Z,87
2022-12-13T08:12:22.870Z,86
2022-12-13T08:13:26.090Z,86
2022-12-13T08:14:24.858Z,86
2022-12-13T08:15:28.841Z,86
2022-12-13T08:16:38.547Z,86
2022-12-13T08:17:39.976Z,87
2022-12-13T08:18:32.927Z,87
2022-12-13T08:19:26.776Z,86
2022-12-13T08:20:30.477Z,86
2022-12-13T08:21:52.832Z,86
2022-12-13T08:22:36.102Z,86
2022-12-13T08:23:51.332Z,87
2022-12-13T08:24:22.339Z,87
2022-12-13T08:25:26.793Z,87
2022-12-13T08:26:29.396Z,87
2022-12-13T08:27:25.156Z,87
2022-12-13T08:28:27.859Z,87
2022-12-13T08:29:22.511Z,87
2022-12-13T08:30:22.958Z,87
2022-12-13T08:31:34.012Z,87
2022-12-13T08:32:43.419Z,87
2022-12-13T08:33:30.316Z,86
2022-12-13T08:34:26.589Z,86
2022-12-13T08:35:34.939Z,86
2022-12-13T08:36:24.965Z,86
2022-12-13T08:37:24.134Z,86
2022-12-13T08:38:37.043Z,86
2022-12-13T08:39:45.639Z,86
2022-12-13T08:40:29.439Z,87
2022-12-13T08:41:24.137Z,86
2022-12-13T08:42:24.523Z,87
2022-12-13T08:43:29.091Z,87
2022-12-13T08:44:26.700Z,87
2022-12-13T08:45:50.207Z,87
2022-12-13T08:46:45.952Z,87
2022-12-13T08:47:26.957Z,87
2022-12-13T08:48:24.283Z,87
2022-12-13T08:49:27.164Z,88
2022-12-13T08:50:20.073Z,88
2022-12-13T08:51:32.222Z,88
2022-12-13T08:53:00.266Z,88
2022-12-13T08:53:28.581Z,87
2022-12-13T08:54:31.345Z,87
2022-12-13T08:55:31.345Z,87
2022-12-13T08:56:30.821Z,87
2022-12-13T08:57:24.371Z,88
2022-12-13T08:58:32.918Z,88
2022-12-13T08:59:19.624Z,88
2022-12-13T09:00:41.452Z,87
2022-12-13T09:01:53.641Z,87
2022-12-13T09:02:26.365Z,87
2022-12-13T09:03:36.285Z,87
2022-12-13T09:04:31.450Z,87
2022-12-13T09:05:33.539Z,87
2022-12-13T09:06:26.674Z,87
2022-12-13T09:07:20.821Z,87
2022-12-13T09:08:28.803Z,87
2022-12-13T09:09:24.637Z,87
2022-12-13T09:10:27.338Z,87
2022-12-13T09:11:39.851Z,87
2022-12-13T09:12:41.595Z,87
2022-12-13T09:13:32.283Z,86
2022-12-13T09:14:25.570Z,86
2022-12-13T09:15:26.973Z,86
2022-12-13T09:16:28.952Z,86
2022-12-13T09:17:24.352Z,86
2022-12-13T09:18:36.876Z,86
2022-12-13T09:19:37.579Z,86
2022-12-13T09:20:29.005Z,86
2022-12-13T09:21:22.423Z,86
2022-12-13T09:22:34.003Z,87
2022-12-13T09:23:25.110Z,87
2022-12-13T09:24:25.026Z,86
2022-12-13T09:25:40.944Z,86
2022-12-13T09:26:25.613Z,86
2022-12-13T09:27:28.038Z,87
2022-12-13T09:28:30.703Z,87
2022-12-13T09:29:26.934Z,86
2022-12-13T09:30:19.694Z,87
2022-12-13T09:31:26.903Z,88
2022-12-13T09:32:43.833Z,88
2022-12-13T09:33:31.325Z,87
2022-12-13T09:34:21.983Z,87
2022-12-13T09:35:24.858Z,87
2022-12-13T09:36:26.673Z,87
2022-12-13T09:37:25.101Z,88
2022-12-13T09:38:24.722Z,87
2022-12-13T09:39:30.335Z,87
2022-12-13T09:40:42.188Z,87
2022-12-13T09:41:28.279Z,88
2022-12-13T09:42:30.748Z,87
2022-12-13T09:43:23.705Z,87
2022-12-13T09:44:42.425Z,87
2022-12-13T09:45:31.954Z,87
2022-12-13T09:46:23.163Z,87
2022-12-13T09:47:26.606Z,87
2022-12-13T09:48:22.711Z,87
2022-12-13T09:49:34.965Z,87
2022-12-13T09:50:27.288Z,87
2022-12-13T09:51:44.746Z,88
2022-12-13T09:52:25.789Z,89
2022-12-13T09:53:23.787Z,88
2022-12-13T09:54:24.770Z,88
2022-12-13T09:55:21.732Z,88
2022-12-13T09:56:38.693Z,87
2022-12-13T09:57:31.793Z,87
2022-12-13T09:58:25.831Z,87
2022-12-13T09:59:29.757Z,88
2022-12-13T10:00:27.268Z,88
2022-12-13T10:01:25.269Z,88
2022-12-13T10:02:20.752Z,88
2022-12-13T10:03:34.134Z,88
2022-12-13T10:04:20.690Z,88
2022-12-13T10:05:37.312Z,88
2022-12-13T10:06:23.860Z,88
2022-12-13T10:07:26.765Z,88
2022-12-13T10:08:19.679Z,87
2022-12-13T10:09:23.946Z,88
2022-12-13T10:10:32.319Z,88
2022-12-13T10:11:31.879Z,88
2022-12-13T10:12:25.691Z,88
2022-12-13T10:13:25.549Z,88
2022-12-13T10:14:32.097Z,88
2022-12-13T10:15:26.767Z,89
2022-12-13T10:16:24.331Z,88
2022-12-13T10:17:30.754Z,88
2022-12-13T10:18:32.414Z,88
2022-12-13T10:19:29.451Z,88
2022-12-13T10:20:28.628Z,87
2022-12-13T10:21:30.044Z,87
2022-12-13T10:22:24.934Z,87
2022-12-13T10:23:47.102Z,87
2022-12-13T10:24:37.049Z,87
2022-12-13T10:25:26.942Z,86
2022-12-13T10:26:25.057Z,87
2022-12-13T10:27:30.024Z,88
2022-12-13T10:28:24.093Z,88
2022-12-13T10:29:28.030Z,88
2022-12-13T10:30:29.269Z,88
2022-12-13T10:31:32.137Z,89
2022-12-13T10:32:26.836Z,89
2022-12-13T10:33:24.437Z,89
2022-12-13T10:34:20.962Z,89
2022-12-13T10:35:28.684Z,89
2022-12-13T10:36:25.037Z,90
2022-12-13T10:37:20.844Z,90
2022-12-13T10:38:31.993Z,90
2022-12-13T10:39:27.008Z,89
2022-12-13T10:40:38.458Z,89
2022-12-13T10:41:33.010Z,89
2022-12-13T10:42:34.060Z,89
2022-12-13T10:43:26.031Z,89
2022-12-13T10:44:25.011Z,89
2022-12-13T10:45:28.823Z,89
2022-12-13T10:46:25.091Z,89
2022-12-13T10:47:25.928Z,90
2022-12-13T10:48:38.574Z,90
2022-12-13T10:49:29.098Z,90
2022-12-13T10:50:29.332Z,90
2022-12-13T10:51:22.039Z,90
2022-12-13T10:52:31.930Z,90
2022-12-13T10:53:28.854Z,90
2022-12-13T10:54:22.664Z,90
2022-12-13T10:55:33.677Z,90
2022-12-13T10:56:30.538Z,90
2022-12-13T10:57:26.884Z,89
2022-12-13T10:58:22.780Z,88
2022-12-13T10:59:31.057Z,88
2022-12-13T11:00:28.646Z,88
2022-12-13T11:01:26.758Z,88
2022-12-13T11:02:34.073Z,88
2022-12-13T11:03:31.608Z,87
2022-12-13T11:04:28.164Z,87
2022-12-13T11:05:23.265Z,87
2022-12-13T11:06:26.642Z,87
2022-12-13T11:07:27.141Z,87
2022-12-13T11:08:26.086Z,87
2022-12-13T11:09:26.245Z,87
2022-12-13T11:10:29.142Z,87
2022-12-13T11:11:26.105Z,88
2022-12-13T11:12:21.156Z,88
2022-12-13T11:13:26.017Z,88
2022-12-13T11:14:32.397Z,88
2022-12-13T11:15:25.425Z,89
2022-12-13T11:16:24.569Z,89
2022-12-13T11:17:30.482Z,89
2022-12-13T11:18:26.029Z,89
2022-12-13T11:19:23.229Z,89
2022-12-13T11:20:19.878Z,90
2022-12-13T11:21:27.048Z,90
2022-12-13T11:22:24.536Z,90
2022-12-13T11:23:29.951Z,90
2022-12-13T11:24:23.194Z,90
2022-12-13T11:25:26.135Z,89
2022-12-13T11:26:24.533Z,89
2022-12-13T11:27:24.428Z,89
2022-12-13T11:28:27.806Z,89
2022-12-13T11:29:21.332Z,90
2022-12-13T11:30:35.383Z,90
2022-12-13T11:31:24.688Z,90
2022-12-13T11:32:39.022Z,91
2022-12-13T11:33:21.055Z,91
2022-12-13T11:34:25.984Z,91
2022-12-13T11:35:26.846Z,91
2022-12-13T11:36:24.667Z,91
2022-12-13T11:37:34.309Z,91
2022-12-13T11:38:20.844Z,91
2022-12-13T11:39:26.318Z,91
2022-12-13T11:40:20.919Z,91
2022-12-13T11:41:32.784Z,91
2022-12-13T11:42:27.819Z,91
2022-12-13T11:43:24.533Z,91
2022-12-13T11:44:21.058Z,90
2022-12-13T11:45:24.693Z,90
2022-12-13T11:46:26.266Z,90
2022-12-13T11:47:23.170Z,90
2022-12-13T11:48:34.270Z,90
2022-12-13T11:49:28.204Z,90
2022-12-13T11:50:33.170Z,90
2022-12-13T11:51:24.705Z,91
2022-12-13T11:52:29.175Z,91
2022-12-13T11:53:25.229Z,91
2022-12-13T11:54:26.724Z,91
2022-12-13T11:55:31.041Z,90
2022-12-13T11:56:21.841Z,91
2022-12-13T11:57:26.534Z,91
2022-12-13T11:59:09.568Z,91
2022-12-13T11:59:26.537Z,91
2022-12-13T12:00:35.315Z,91
2022-12-13T12:01:21.327Z,91
2022-12-13T12:02:20.688Z,91
2022-12-13T12:03:27.196Z,91
2022-12-13T12:04:25.866Z,91
2022-12-13T12:05:36.305Z,91
2022-12-13T12:06:28.970Z,91
2022-12-13T12:07:36.716Z,91
2022-12-13T12:08:32.675Z,91
2022-12-13T12:09:25.868Z,91
2022-12-13T12:10:28.116Z,91
2022-12-13T12:11:27.183Z,92
2022-12-13T12:12:32.805Z,92
2022-12-13T12:13:30.043Z,92
2022-12-13T12:14:24.440Z,92
2022-12-13T12:15:26.766Z,92
2022-12-13T12:16:33.359Z,92
2022-12-13T12:17:22.667Z,92
2022-12-13T12:18:24.416Z,92
2022-12-13T12:19:34.060Z,92
2022-12-13T12:20:29.139Z,92
2022-12-13T12:21:42.719Z,92
2022-12-13T12:22:23.755Z,92
2022-12-13T12:23:40.004Z,92
2022-12-13T12:24:28.485Z,92
2022-12-13T12:25:24.143Z,92
2022-12-13T12:26:33.334Z,92
2022-12-13T12:27:30.310Z,92
2022-12-13T12:28:25.596Z,92
2022-12-13T12:29:24.215Z,91
2022-12-13T12:30:38.928Z,92
2022-12-13T12:31:27.513Z,92
2022-12-13T12:32:26.584Z,92
2022-12-13T12:33:35.520Z,92
2022-12-13T12:34:28.853Z,92
2022-12-13T12:35:27.255Z,92
2022-12-13T12:36:21.707Z,92
2022-12-13T12:37:20.742Z,92
2022-12-13T12:38:27.323Z,92
2022-12-13T12:39:26.576Z,92
2022-12-13T12:40:20.591Z,92
2022-12-13T12:41:29.369Z,93
2022-12-13T12:42:27.494Z,93
2022-12-13T12:43:22.013Z,93
2022-12-13T12:44:30.904Z,92
2022-12-13T12:45:55.393Z,92
2022-12-13T12:46:23.013Z,92
2022-12-13T12:49:00.797Z,91
2022-12-13T12:49:02.916Z,91
2022-12-13T12:49:25.941Z,91
2022-12-13T12:50:26.213Z,91
2022-12-13T12:51:31.816Z,91
2022-12-13T12:52:23.354Z,91
2022-12-13T12:53:26.024Z,91
2022-12-13T12:54:20.799Z,91
2022-12-13T12:55:24.004Z,92
2022-12-13T12:56:26.964Z,92
2022-12-13T12:57:21.578Z,92
2022-12-13T12:58:33.458Z,92
2022-12-13T12:59:28.458Z,91
2022-12-13T13:00:19.665Z,91
2022-12-13T13:01:25.778Z,92
2022-12-13T13:02:30.383Z,92
2022-12-13T13:03:26.850Z,92
2022-12-13T13:04:23.195Z,92
2022-12-13T13:05:30.967Z,92
2022-12-13T13:06:29.931Z,92
2022-12-13T13:07:27.308Z,92
2022-12-13T13:08:27.330Z,92
2022-12-13T13:09:30.658Z,92
2022-12-13T13:10:27.363Z,92
2022-12-13T13:11:24.512Z,92
2022-12-13T13:12:29.485Z,92
2022-12-13T13:13:32.897Z,92
2022-12-13T13:14:27.652Z,92
2022-12-13T13:15:24.140Z,92
2022-12-13T13:16:29.142Z,92
2022-12-13T13:17:21.414Z,92
2022-12-13T13:18:23.103Z,92
2022-12-13T13:19:27.077Z,92
2022-12-13T13:20:27.156Z,92
2022-12-13T13:21:24.713Z,92
2022-12-13T13:22:31.472Z,93
2022-12-13T13:23:39.782Z,93
2022-12-13T13:24:25.094Z,93
2022-12-13T13:25:21.175Z,93
2022-12-13T13:26:34.300Z,93
2022-12-13T13:27:27.014Z,93
2022-12-13T13:28:25.171Z,93
2022-12-13T13:29:29.412Z,93
2022-12-13T13:30:24.779Z,93
2022-12-13T13:31:26.203Z,93
2022-12-13T13:32:27.898Z,93
2022-12-13T13:33:25.511Z,93
2022-12-13T13:34:26.953Z,93
2022-12-13T13:35:24.160Z,93
2022-12-13T13:36:33.284Z,93
2022-12-13T13:37:26.704Z,93
2022-12-13T13:38:24.937Z,93
2022-12-13T13:39:20.972Z,93
2022-12-13T13:40:32.943Z,93
2022-12-13T13:41:20.111Z,92
2022-12-13T13:42:24.017Z,92
2022-12-13T13:43:36.376Z,92
2022-12-13T13:44:29.389Z,92
2022-12-13T13:45:25.786Z,92
2022-12-13T13:46:21.069Z,92
2022-12-13T13:47:31.331Z,92
2022-12-13T13:48:29.215Z,92
2022-12-13T13:49:24.746Z,92
2022-12-13T13:50:33.855Z,92
2022-12-13T13:51:26.696Z,92
2022-12-13T13:52:26.579Z,91
2022-12-13T13:53:23.112Z,91
2022-12-13T13:54:32.596Z,91
2022-12-13T13:55:29.868Z,90
2022-12-13T13:56:23.933Z,91
2022-12-13T13:58:07.625Z,91
2022-12-13T13:58:29.591Z,91
2022-12-13T13:59:27.679Z,92
2022-12-13T14:00:24.057Z,92
2022-12-13T14:01:31.400Z,92
2022-12-13T14:02:24.107Z,92
2022-12-13T14:03:34.052Z,93
2022-12-13T14:04:33.043Z,93
2022-12-13T14:05:30.383Z,93
2022-12-13T14:06:25.269Z,93
2022-12-13T14:07:27.236Z,93
2022-12-13T14:08:20.985Z,93
2022-12-13T14:09:29.373Z,93
2022-12-13T14:10:24.900Z,93
2022-12-13T14:11:25.467Z,93
2022-12-13T14:12:29.152Z,93
2022-12-13T14:13:20.191Z,93
2022-12-13T14:14:22.798Z,93
2022-12-13T14:15:24.848Z,93
2022-12-13T14:16:28.260Z,93
2022-12-13T14:17:24.782Z,93
2022-12-13T14:18:26.721Z,93
2022-12-13T14:19:20.839Z,93
2022-12-13T14:20:25.416Z,93
2022-12-13T14:21:21.228Z,93
2022-12-13T14:22:29.548Z,93
2022-12-13T14:23:21.823Z,93
2022-12-13T14:24:25.304Z,93
2022-12-13T14:25:40.200Z,93
2022-12-13T14:26:24.846Z,92
2022-12-13T14:27:25.079Z,92
2022-12-13T14:28:21.748Z,92
2022-12-13T14:29:31.514Z,92
2022-12-13T14:30:29.625Z,92
2022-12-13T14:31:23.377Z,92
2022-12-13T14:32:35.690Z,92